Time;durP1;ratioP1;P1;durP2;ratioP2;P2;SDS_P1;SDS_P2;PMS_P1;PMS_P2;Temp;Humidity;BMP_temperature;BMP_pressure;BME280_temperature;BME280_humidity;BME280_pressure;Samples;Min_cycle;Max_cycle;Signal;HPM_P1;HPM_P2
2023/02/10 00:02:22;;;;;;;40.70;25.90;;;;;;;-1.09;88.05;98511.19;5116669;27;20179;-64
2023/02/10 00:04:48;;;;;;;39.33;26.73;;;;;;;-1.06;88.24;98505.84;5142392;27;20203;-64
2023/02/10 00:07:13;;;;;;;42.90;27.93;;;;;;;-1.08;88.69;98508.50;5141689;27;20166;-64
2023/02/10 00:09:39;;;;;;;44.00;27.60;;;;;;;-1.04;88.56;98504.78;5153674;27;20195;-65
2023/02/10 00:12:04;;;;;;;39.33;25.17;;;;;;;-1.10;88.52;98501.81;5135357;27;20170;-64
2023/02/10 00:14:30;;;;;;;40.37;25.77;;;;;;;-1.09;89.09;98506.88;5144580;27;20197;-64
2023/02/10 00:16:56;;;;;;;39.57;26.13;;;;;;;-1.09;88.58;98506.88;5133546;27;20653;-64
2023/02/10 00:19:24;;;;;;;38.27;24.97;;;;;;;-1.10;88.75;98505.22;5133455;27;20232;-64
2023/02/10 00:21:50;;;;;;;35.83;24.43;;;;;;;-1.07;89.36;98501.63;5146911;27;20257;-64
2023/02/10 00:24:16;;;;;;;38.73;24.63;;;;;;;-1.07;89.19;98499.88;5153631;27;20706;-64
2023/02/10 00:26:41;;;;;;;39.37;24.57;;;;;;;-1.18;89.47;98492.13;5152828;27;20281;-64
2023/02/10 00:29:07;;;;;;;36.50;24.03;;;;;;;-1.19;89.95;98495.59;5143842;27;20182;-64
2023/02/10 00:31:32;;;;;;;40.27;24.93;;;;;;;-1.29;90.48;98495.47;5146102;27;20174;-64
2023/02/10 00:33:58;;;;;;;37.07;23.77;;;;;;;-1.42;91.43;98492.13;5153638;27;20186;-64
2023/02/10 00:36:24;;;;;;;45.23;25.40;;;;;;;-1.56;91.45;98494.84;5134281;27;20178;-64
2023/02/10 00:38:50;;;;;;;38.37;25.20;;;;;;;-1.60;92.52;98497.72;5136112;27;20186;-64
2023/02/10 00:41:18;;;;;;;46.87;25.97;;;;;;;-1.70;93.47;98498.38;5152377;27;20174;-64
2023/02/10 00:43:44;;;;;;;44.00;25.57;;;;;;;-1.65;92.91;98503.19;5119554;27;20543;-65
2023/02/10 00:46:14;;;;;;;43.63;25.67;;;;;;;-1.80;94.20;98502.53;5131267;27;20238;-64
2023/02/10 00:48:39;;;;;;;41.13;25.93;;;;;;;-1.86;95.13;98517.56;5139860;27;20174;-64
2023/02/10 00:51:06;;;;;;;42.47;26.23;;;;;;;-1.88;95.19;98525.38;5133107;27;20171;-64
2023/02/10 00:53:32;;;;;;;42.33;26.17;;;;;;;-1.88;95.48;98527.09;5145972;27;20185;-64
2023/02/10 00:55:58;;;;;;;39.07;25.00;;;;;;;-1.90;95.97;98524.66;5153096;27;20233;-64
2023/02/10 00:58:24;;;;;;;42.40;27.50;;;;;;;-1.89;95.61;98518.56;5148782;27;20190;-64
2023/02/10 01:00:49;;;;;;;41.23;27.03;;;;;;;-1.91;95.50;98511.91;5153448;27;20215;-65
2023/02/10 01:03:15;;;;;;;41.77;27.10;;;;;;;-1.99;95.94;98527.84;5138449;27;20186;-65
2023/02/10 01:05:41;;;;;;;48.13;27.03;;;;;;;-1.99;95.80;98524.44;5153198;27;20195;-65
2023/02/10 01:08:06;;;;;;;40.03;24.63;;;;;;;-1.98;96.48;98524.34;5146473;27;20652;-65
2023/02/10 01:10:36;;;;;;;45.93;27.03;;;;;;;-2.00;97.09;98533.09;5136870;27;20647;-65
2023/02/10 01:13:02;;;;;;;42.97;27.10;;;;;;;-2.07;98.00;98526.75;5137005;27;20167;-65
2023/02/10 01:15:28;;;;;;;41.27;26.03;;;;;;;-2.25;98.49;98531.38;5101705;27;20191;-64
2023/02/10 01:17:53;;;;;;;46.53;27.50;;;;;;;-2.36;99.59;98539.81;5137161;27;20174;-64
2023/02/10 01:20:19;;;;;;;41.80;25.97;;;;;;;-2.33;100.00;98536.19;5147534;27;20206;-64
2023/02/10 01:22:44;;;;;;;42.47;26.33;;;;;;;-2.36;100.00;98541.53;5138662;27;20634;-64
2023/02/10 01:25:10;;;;;;;42.03;26.50;;;;;;;-2.41;99.78;98535.91;5156944;27;20705;-65
2023/02/10 01:27:35;;;;;;;43.27;27.07;;;;;;;-2.48;100.00;98538.06;5155598;27;20639;-64
2023/02/10 01:30:01;;;;;;;39.53;25.97;;;;;;;-2.38;100.00;98522.84;5157225;27;20275;-65
2023/02/10 01:32:26;;;;;;;41.37;27.27;;;;;;;-2.43;100.00;98524.91;5138390;27;20186;-64
2023/02/10 01:34:52;;;;;;;43.40;27.60;;;;;;;-2.46;100.00;98525.13;5142306;27;20550;-65
2023/02/10 01:37:17;;;;;;;50.13;27.13;;;;;;;-2.48;100.00;98522.66;5119375;27;20289;-65
2023/02/10 01:39:43;;;;;;;42.83;25.83;;;;;;;-2.49;100.00;98522.75;5156892;27;20175;-65
2023/02/10 01:42:13;;;;;;;44.80;26.37;;;;;;;-2.54;100.00;98531.56;5157149;27;20186;-64
2023/02/10 01:44:38;;;;;;;41.80;25.83;;;;;;;-2.53;100.00;98528.09;5151920;27;20237;-65
2023/02/10 01:47:03;;;;;;;41.13;26.13;;;;;;;-2.52;100.00;98522.03;5122624;27;20218;-65
2023/02/10 01:49:33;;;;;;;51.07;26.73;;;;;;;-2.44;100.00;98530.94;5152996;27;20163;-65
2023/02/10 01:52:34;;;;;;;49.73;27.47;;;;;;;-2.52;100.00;98527.19;5136032;27;20177;-65
2023/02/10 01:55:04;;;;;;;47.47;27.83;;;;;;;-2.43;100.00;98525.72;5032712;28;20202;-65
2023/02/10 01:57:30;;;;;;;45.07;27.27;;;;;;;-2.60;100.00;98526.03;5130605;27;20190;-65
2023/02/10 02:00:00;;;;;;;46.73;26.90;;;;;;;-2.71;100.00;98526.72;5155072;27;20287;-65
2023/02/10 02:02:25;;;;;;;51.57;28.13;;;;;;;-2.71;100.00;98518.22;5119536;27;20650;-65
2023/02/10 02:04:53;;;;;;;47.67;28.53;;;;;;;-2.73;100.00;98526.00;5141328;27;20202;-65
2023/02/10 02:07:23;;;;;;;47.37;26.17;;;;;;;-2.81;100.00;98522.31;5135764;27;20175;-65
2023/02/10 02:09:57;;;;;;;47.10;28.03;;;;;;;-2.83;100.00;98524.97;5135553;27;20181;-65
2023/02/10 02:12:37;;;;;;;46.80;26.77;;;;;;;-2.85;100.00;98526.81;5115394;28;20275;-65
2023/02/10 02:15:47;;;;;;;49.63;28.90;;;;;;;-2.83;100.00;98537.78;5105864;27;20210;-64
2023/02/10 02:18:24;;;;;;;46.33;27.80;;;;;;;-2.77;100.00;98532.25;5138639;27;20601;-65
2023/02/10 02:21:27;;;;;;;44.93;27.00;;;;;;;-2.77;100.00;98541.69;5156022;27;20193;-65
2023/02/10 02:24:08;;;;;;;45.77;27.77;;;;;;;-2.69;100.00;98545.44;5139134;27;20235;-65
2023/02/10 02:26:44;;;;;;;42.50;26.97;;;;;;;-2.71;100.00;98549.00;5117765;27;20545;-65
2023/02/10 02:32:39;;;;;;;45.50;27.20;;;;;;;-2.64;100.00;98547.69;5135613;27;20562;-65
2023/02/10 02:35:09;;;;;;;42.90;26.07;;;;;;;-2.62;100.00;98549.22;5145815;27;20693;-65
2023/02/10 02:37:41;;;;;;;45.80;28.10;;;;;;;-2.59;100.00;98551.59;5154332;27;20186;-65
2023/02/10 02:40:07;;;;;;;46.87;28.03;;;;;;;-2.67;100.00;98556.41;5155450;27;20170;-65
2023/02/10 02:42:33;;;;;;;41.63;26.80;;;;;;;-2.58;100.00;98544.72;5156084;27;20178;-65
2023/02/10 02:45:01;;;;;;;45.30;26.63;;;;;;;-2.52;100.00;98552.84;5148688;27;20246;-65
2023/02/10 02:47:57;;;;;;;44.97;26.03;;;;;;;-2.42;100.00;98560.75;5135672;27;20243;-65
2023/02/10 02:50:32;;;;;;;43.37;25.73;;;;;;;-2.37;100.00;98561.25;5134910;27;20167;-65
2023/02/10 02:53:19;;;;;;;37.87;24.40;;;;;;;-2.34;100.00;98552.53;5144482;27;20517;-65
2023/02/10 02:56:01;;;;;;;39.40;25.07;;;;;;;-2.35;100.00;98553.47;5154954;27;20201;-65
2023/02/10 02:58:44;;;;;;;39.07;25.20;;;;;;;-2.34;100.00;98558.47;5127763;27;20533;-65
2023/02/10 03:01:25;;;;;;;41.87;24.63;;;;;;;-2.29;100.00;98556.44;5153807;27;20174;-65
2023/02/10 03:03:56;;;;;;;41.93;24.67;;;;;;;-2.24;100.00;98551.00;5155317;27;20461;-65
2023/02/10 03:06:22;;;;;;;43.63;25.53;;;;;;;-2.21;100.00;98556.75;5150078;27;20653;-65
2023/02/10 03:08:48;;;;;;;40.77;25.63;;;;;;;-2.22;100.00;98564.53;5142987;27;20182;-65
2023/02/10 03:11:13;;;;;;;45.23;26.73;;;;;;;-2.24;100.00;98563.84;5142293;27;20623;-65
2023/02/10 03:13:39;;;;;;;41.97;24.70;;;;;;;-2.37;100.00;98558.69;5135484;27;20180;-65
2023/02/10 03:16:05;;;;;;;44.73;26.30;;;;;;;-2.21;100.00;98558.47;5137390;27;20202;-65
2023/02/10 03:18:30;;;;;;;42.50;25.63;;;;;;;-2.17;100.00;98560.72;5155081;27;20169;-65
2023/02/10 03:20:55;;;;;;;39.37;24.17;;;;;;;-2.07;100.00;98560.13;5154986;27;20257;-65
2023/02/10 03:23:21;;;;;;;38.27;24.57;;;;;;;-2.11;100.00;98565.47;5153580;27;20175;-64
2023/02/10 03:25:47;;;;;;;42.37;23.23;;;;;;;-2.20;100.00;98560.97;5137234;27;20195;-66
2023/02/10 03:28:13;;;;;;;37.30;24.70;;;;;;;-2.07;100.00;98565.28;5113814;28;20237;-65
2023/02/10 03:30:38;;;;;;;42.70;26.27;;;;;;;-2.21;100.00;98563.63;5120763;27;20532;-65
2023/02/10 03:33:04;;;;;;;39.03;24.07;;;;;;;-2.23;100.00;98562.91;5134009;27;20179;-65
2023/02/10 03:35:35;;;;;;;41.00;26.30;;;;;;;-2.19;100.00;98561.78;5149962;27;20274;-65
2023/02/10 03:38:01;;;;;;;43.87;26.03;;;;;;;-2.24;100.00;98563.84;5115859;27;20474;-65
2023/02/10 03:40:26;;;;;;;47.87;24.97;;;;;;;-2.30;100.00;98569.38;5140388;27;20162;-65
2023/02/10 03:42:51;;;;;;;39.27;25.70;;;;;;;-2.29;100.00;98565.91;5154267;27;20185;-66
2023/02/10 03:45:17;;;;;;;43.90;25.23;;;;;;;-2.30;100.00;98569.38;5143841;27;20231;-65
2023/02/10 03:47:42;;;;;;;37.40;24.77;;;;;;;-2.39;100.00;98570.78;5133913;27;20229;-64
2023/02/10 03:50:08;;;;;;;42.60;25.20;;;;;;;-2.37;100.00;98575.84;5154012;27;20193;-65
2023/02/10 03:52:33;;;;;;;43.17;26.37;;;;;;;-2.33;100.00;98579.84;5145670;27;20235;-65
2023/02/10 03:54:58;;;;;;;41.07;24.87;;;;;;;-2.34;100.00;98581.56;5133681;27;20195;-65
2023/02/10 03:57:24;;;;;;;37.40;24.43;;;;;;;-2.37;100.00;98586.94;5115376;27;20545;-67
2023/02/10 03:59:49;;;;;;;40.07;24.17;;;;;;;-2.36;100.00;98580.88;5135061;27;20170;-65
2023/02/10 04:02:14;;;;;;;39.17;24.77;;;;;;;-2.32;100.00;98582.31;5154184;27;20203;-65
2023/02/10 04:04:40;;;;;;;39.60;24.17;;;;;;;-2.36;100.00;98580.88;5154284;27;20198;-65
2023/02/10 04:07:05;;;;;;;41.43;25.37;;;;;;;-2.31;100.00;98585.69;5140653;27;20214;-65
2023/02/10 04:09:31;;;;;;;39.93;23.63;;;;;;;-2.31;100.00;98575.44;5133632;27;20179;-65
2023/02/10 04:11:56;;;;;;;42.33;24.87;;;;;;;-2.32;100.00;98576.34;5131796;27;20160;-65
2023/02/10 04:14:21;;;;;;;38.23;24.90;;;;;;;-2.35;100.00;98579.97;5133490;27;20195;-66
2023/02/10 04:16:47;;;;;;;40.13;24.67;;;;;;;-2.30;100.00;98585.59;5143966;27;20206;-65
2023/02/10 04:19:13;;;;;;;37.43;23.60;;;;;;;-2.39;100.00;98583.63;5135104;27;20185;-65
2023/02/10 04:21:38;;;;;;;36.30;24.07;;;;;;;-2.47;100.00;98588.47;5151897;27;20178;-65
2023/02/10 04:24:04;;;;;;;42.50;24.77;;;;;;;-2.56;100.00;98576.22;5133171;27;20167;-64
2023/02/10 04:26:30;;;;;;;42.13;25.27;;;;;;;-2.63;100.00;98588.66;5144210;27;20205;-65
2023/02/10 04:28:55;;;;;;;38.50;24.13;;;;;;;-2.73;100.00;98587.56;5153563;27;20215;-64
2023/02/10 04:31:20;;;;;;;39.97;24.27;;;;;;;-2.62;100.00;98577.44;5137549;27;20179;-65
2023/02/10 04:33:46;;;;;;;39.63;25.40;;;;;;;-2.58;100.00;98590.91;5135595;27;20179;-65
2023/02/10 04:36:11;;;;;;;45.90;25.67;;;;;;;-2.78;100.00;98584.50;5144892;27;20243;-65
2023/02/10 04:38:37;;;;;;;39.13;25.47;;;;;;;-2.84;100.00;98578.97;5139924;27;20179;-66
2023/02/10 04:41:05;;;;;;;42.57;25.30;;;;;;;-2.90;100.00;98587.88;5152783;27;20182;-66
2023/02/10 04:43:32;;;;;;;41.47;25.63;;;;;;;-2.96;100.00;98588.25;5153322;27;20205;-65
2023/02/10 04:45:57;;;;;;;39.27;25.27;;;;;;;-2.98;100.00;98587.53;5080422;28;20229;-65
2023/02/10 04:48:23;;;;;;;40.13;25.73;;;;;;;-2.98;100.00;98590.09;5063657;28;20193;-65
2023/02/10 04:50:48;;;;;;;39.57;24.97;;;;;;;-2.91;100.00;98588.78;5051985;28;20181;-65
2023/02/10 04:53:14;;;;;;;39.13;25.17;;;;;;;-2.94;100.00;98592.34;5052396;28;20295;-66
2023/02/10 04:55:39;;;;;;;40.63;24.37;;;;;;;-2.95;100.00;98597.56;5051902;28;20190;-66
2023/02/10 04:58:05;;;;;;;42.43;25.23;;;;;;;-2.90;100.00;98602.44;5058329;28;20169;-66
2023/02/10 05:00:30;;;;;;;38.77;24.63;;;;;;;-2.96;100.00;98601.09;5071555;28;20173;-66
2023/02/10 05:02:56;;;;;;;44.40;25.50;;;;;;;-2.98;100.00;98595.22;5071368;28;20173;-66
2023/02/10 05:05:23;;;;;;;41.87;25.80;;;;;;;-3.03;100.00;98595.50;5054691;28;20205;-66
2023/02/10 05:07:49;;;;;;;38.60;24.63;;;;;;;-3.03;100.00;98598.06;5051887;28;20170;-66
2023/02/10 05:10:14;;;;;;;39.17;24.23;;;;;;;-3.01;100.00;98603.91;5033139;28;20546;-66
2023/02/10 05:12:39;;;;;;;38.53;24.27;;;;;;;-3.00;100.00;98600.44;5052180;28;20189;-66
2023/02/10 05:15:07;;;;;;;39.13;23.63;;;;;;;-2.90;100.00;98610.13;5066696;28;20205;-66
2023/02/10 05:17:33;;;;;;;40.30;25.13;;;;;;;-3.02;100.00;98615.13;5060148;28;20173;-66
2023/02/10 05:19:58;;;;;;;43.43;26.63;;;;;;;-2.94;100.00;98617.19;5033833;28;20545;-66
2023/02/10 05:22:29;;;;;;;36.73;23.57;;;;;;;-2.94;100.00;98617.19;5061642;28;20187;-66
2023/02/10 05:24:57;;;;;;;40.67;27.23;;;;;;;-3.00;100.00;98623.50;5071129;28;20201;-66
2023/02/10 05:27:26;;;;;;;36.90;24.07;;;;;;;-3.01;100.00;98615.94;5070597;28;20227;-65
2023/02/10 05:29:51;;;;;;;42.97;25.97;;;;;;;-3.02;100.00;98606.59;5051692;28;20174;-66
2023/02/10 05:32:17;;;;;;;38.47;24.80;;;;;;;-3.03;100.00;98616.03;5051529;28;20643;-66
2023/02/10 05:34:42;;;;;;;39.43;24.70;;;;;;;-3.07;100.00;98614.59;5063704;28;20224;-66
2023/02/10 05:37:07;;;;;;;41.53;24.07;;;;;;;-2.98;100.00;98621.69;5055745;28;20189;-67
2023/02/10 05:39:33;;;;;;;36.87;24.03;;;;;;;-3.00;100.00;98620.13;5051913;28;20212;-67
2023/02/10 05:41:59;;;;;;;44.83;25.77;;;;;;;-3.01;100.00;98624.44;5071306;28;20193;-66
2023/02/10 05:44:26;;;;;;;37.30;23.13;;;;;;;-3.06;100.00;98623.91;5069995;28;20201;-67
2023/02/10 05:46:52;;;;;;;39.67;24.93;;;;;;;-3.05;100.00;98623.00;5068560;28;20221;-66
2023/02/10 05:49:17;;;;;;;39.53;24.50;;;;;;;-3.21;100.00;98626.59;5064765;28;20177;-66
2023/02/10 05:51:44;;;;;;;40.20;24.57;;;;;;;-3.21;100.00;98626.59;5069465;28;20177;-66
2023/02/10 05:54:10;;;;;;;42.73;24.77;;;;;;;-3.27;100.00;98630.38;5073453;28;20181;-66
2023/02/10 05:56:35;;;;;;;40.73;23.47;;;;;;;-3.11;100.00;98627.66;5074503;28;20165;-66
2023/02/10 05:59:01;;;;;;;38.23;24.20;;;;;;;-3.21;100.00;98631.72;5060413;28;20742;-66
2023/02/10 06:01:27;;;;;;;41.13;24.53;;;;;;;-3.23;100.00;98633.59;5063896;28;20322;-66
2023/02/10 06:03:53;;;;;;;40.57;24.53;;;;;;;-3.29;100.00;98639.09;5062470;28;20559;-65
2023/02/10 06:06:18;;;;;;;40.27;25.07;;;;;;;-3.31;100.00;98643.47;5074310;28;20205;-65
2023/02/10 06:08:44;;;;;;;48.93;27.00;;;;;;;-3.25;100.00;98648.22;5069162;28;20184;-65
2023/02/10 06:11:09;;;;;;;47.93;25.57;;;;;;;-3.55;100.00;98645.78;5054707;28;20170;-65
2023/02/10 06:13:36;;;;;;;42.73;25.93;;;;;;;-3.65;100.00;98648.09;5054993;28;20615;-65
2023/02/10 06:16:01;;;;;;;46.43;27.53;;;;;;;-3.63;100.00;98656.53;5037118;28;20205;-65
2023/02/10 06:18:31;;;;;;;43.33;26.67;;;;;;;-3.83;100.00;98667.94;5062025;28;20170;-65
2023/02/10 06:20:57;;;;;;;44.23;26.17;;;;;;;-3.77;100.00;98659.06;5054496;28;20184;-65
2023/02/10 06:23:24;;;;;;;47.17;26.27;;;;;;;-3.72;100.00;98657.03;5054650;28;20178;-65
2023/02/10 06:25:54;;;;;;;50.37;26.97;;;;;;;-3.76;100.00;98665.84;5054475;28;20209;-65
2023/02/10 06:28:26;;;;;;;41.40;25.57;;;;;;;-3.57;100.00;98661.28;5064241;28;20178;-65
2023/02/10 06:30:52;;;;;;;42.37;27.93;;;;;;;-3.56;100.00;98665.47;5067566;28;20170;-65
2023/02/10 06:33:17;;;;;;;42.33;25.47;;;;;;;-3.52;100.00;98666.94;5055171;28;20245;-65
2023/02/10 06:35:49;;;;;;;41.97;26.03;;;;;;;-3.66;100.00;98674.63;5054564;28;20209;-65
2023/02/10 06:38:15;;;;;;;45.63;28.03;;;;;;;-3.59;100.00;98667.41;5054379;28;20551;-65
2023/02/10 06:40:40;;;;;;;41.93;27.93;;;;;;;-3.72;100.00;98676.72;5059487;28;20177;-65
2023/02/10 06:43:06;;;;;;;44.77;28.37;;;;;;;-3.86;100.00;98674.97;5057253;28;20239;-65
2023/02/10 06:45:32;;;;;;;44.57;27.30;;;;;;;-3.74;100.00;98676.00;5091554;27;20595;-65
2023/02/10 06:47:57;;;;;;;41.60;27.23;;;;;;;-3.79;100.00;98682.19;5135762;27;20176;-65
2023/02/10 06:50:23;;;;;;;49.77;28.53;;;;;;;-3.83;100.00;98685.03;5152188;27;20171;-65
2023/02/10 06:52:48;;;;;;;46.80;28.03;;;;;;;-3.95;100.00;98691.69;5135207;27;20198;-65
2023/02/10 06:55:14;;;;;;;47.93;29.57;;;;;;;-4.04;100.00;98696.53;5116131;27;20203;-66
2023/02/10 06:57:40;;;;;;;47.00;28.70;;;;;;;-4.08;100.00;98695.06;5135475;27;20245;-66
2023/02/10 07:00:09;;;;;;;43.33;27.97;;;;;;;-4.00;100.00;98700.56;5152944;27;20540;-66
2023/02/10 07:02:35;;;;;;;40.50;26.77;;;;;;;-3.82;100.00;98704.63;5142290;27;20199;-66
2023/02/10 07:05:02;;;;;;;41.70;27.10;;;;;;;-3.88;100.00;98710.09;5138625;27;20306;-66
2023/02/10 07:07:28;;;;;;;41.70;27.30;;;;;;;-3.72;100.00;98708.28;5133043;27;20511;-66
2023/02/10 07:09:53;;;;;;;46.17;28.17;;;;;;;-3.63;100.00;98712.88;5134812;27;20178;-66
2023/02/10 07:12:20;;;;;;;50.40;29.13;;;;;;;-3.69;100.00;98714.97;5117423;27;20707;-66
2023/02/10 07:14:46;;;;;;;49.40;28.90;;;;;;;-3.69;100.00;98709.84;5148990;27;20194;-66
2023/02/10 07:17:12;;;;;;;43.93;28.77;;;;;;;-3.67;100.00;98711.38;5120017;27;20320;-66
2023/02/10 07:19:37;;;;;;;41.10;26.70;;;;;;;-3.45;100.00;98705.81;5149885;27;20596;-66
2023/02/10 07:22:06;;;;;;;40.93;26.47;;;;;;;-3.40;100.00;98706.38;5155360;27;20166;-66
2023/02/10 07:24:33;;;;;;;41.10;25.47;;;;;;;-3.28;100.00;98709.94;5156120;27;20214;-67
2023/02/10 07:26:58;;;;;;;38.43;24.73;;;;;;;-3.24;100.00;98712.22;5158586;27;20203;-66
2023/02/10 07:29:24;;;;;;;40.43;26.03;;;;;;;-3.22;100.00;98704.44;5135138;27;20176;-66
2023/02/10 07:31:49;;;;;;;42.67;25.23;;;;;;;-3.23;100.00;98715.63;5137049;27;20175;-67
2023/02/10 07:34:19;;;;;;;44.70;27.40;;;;;;;-3.19;100.00;98711.94;5151598;27;20202;-66
2023/02/10 07:36:45;;;;;;;37.67;23.27;;;;;;;-3.26;100.00;98714.06;5124258;27;20182;-62
2023/02/10 07:39:15;;;;;;;38.60;25.10;;;;;;;-3.13;100.00;98720.09;5138264;27;20179;-62
2023/02/10 07:41:41;;;;;;;42.33;26.03;;;;;;;-2.67;100.00;98725.75;5140911;27;20207;-62
2023/02/10 07:44:06;;;;;;;39.07;24.03;;;;;;;-2.26;100.00;98722.31;5149091;27;20251;-61
2023/02/10 07:46:32;;;;;;;40.37;26.80;;;;;;;-1.97;100.00;98726.38;5137610;27;20591;-63
2023/02/10 07:48:57;;;;;;;38.60;25.83;;;;;;;-2.04;100.00;98732.00;5135650;27;20175;-62
2023/02/10 07:51:23;;;;;;;36.97;25.43;;;;;;;-2.01;100.00;98727.53;5153085;27;20311;-61
2023/02/10 07:53:48;;;;;;;40.37;24.87;;;;;;;-1.81;99.13;98734.72;5146057;27;20179;-61
2023/02/10 07:56:13;;;;;;;37.83;25.77;;;;;;;-1.62;98.13;98742.06;5115208;28;20188;-62
2023/02/10 07:58:40;;;;;;;41.03;24.60;;;;;;;-1.86;98.08;98733.38;5133205;27;20167;-61
2023/02/10 08:01:10;;;;;;;41.50;25.10;;;;;;;-1.63;98.52;98734.44;5147556;27;20179;-61
2023/02/10 08:03:38;;;;;;;36.67;25.53;;;;;;;-1.77;98.74;98722.50;5154091;27;20178;-61
2023/02/10 08:06:04;;;;;;;38.93;26.47;;;;;;;-1.75;98.65;98725.78;5137237;27;20206;-60
2023/02/10 08:08:30;;;;;;;37.60;24.43;;;;;;;-1.62;98.56;98724.06;5127661;27;20179;-61
2023/02/10 08:10:55;;;;;;;36.03;24.67;;;;;;;-1.72;99.32;98733.28;5133656;27;20228;-63
2023/02/10 08:13:23;;;;;;;36.60;24.43;;;;;;;-1.67;99.24;98726.09;5137198;27;20219;-63
2023/02/10 08:15:48;;;;;;;38.63;25.47;;;;;;;-1.57;98.43;98728.88;5130437;27;20242;-62
2023/02/10 08:18:15;;;;;;;39.33;24.83;;;;;;;-1.28;96.52;98728.53;5146279;27;20183;-62
2023/02/10 08:20:40;;;;;;;39.77;26.53;;;;;;;-1.33;96.93;98729.78;5152666;27;20564;-62
2023/02/10 08:23:06;;;;;;;35.17;25.00;;;;;;;-1.52;97.96;98724.25;5150981;27;20184;-63
2023/02/10 08:25:32;;;;;;;39.67;24.63;;;;;;;-1.40;97.47;98736.28;5122959;27;20706;-62
2023/02/10 08:27:58;;;;;;;36.17;25.77;;;;;;;-1.48;97.57;98744.50;5141083;27;20178;-63
2023/02/10 08:30:24;;;;;;;41.20;26.77;;;;;;;-1.44;97.65;98740.78;5145936;27;20187;-62
2023/02/10 08:32:51;;;;;;;35.93;25.70;;;;;;;-1.48;97.10;98741.13;5148936;27;20503;-62
2023/02/10 08:35:17;;;;;;;36.60;24.17;;;;;;;-1.32;95.45;98741.72;5153172;27;20281;-61
2023/02/10 08:37:42;;;;;;;40.03;24.20;;;;;;;-1.28;95.85;98741.41;5153507;27;20646;-60
2023/02/10 08:40:08;;;;;;;37.33;25.10;;;;;;;-1.31;95.61;98746.78;5151591;27;20174;-61
2023/02/10 08:42:34;;;;;;;36.70;25.73;;;;;;;-1.07;94.82;98752.00;5145192;27;20221;-60
2023/02/10 08:44:59;;;;;;;37.53;25.53;;;;;;;-0.73;93.73;98747.91;5129336;27;20235;-59
2023/02/10 08:47:25;;;;;;;46.70;29.50;;;;;;;-0.62;92.57;98749.72;5147765;27;20282;-58
2023/02/10 08:49:50;;;;;;;44.63;30.03;;;;;;;-0.47;91.76;98746.88;5142540;27;20174;-61
2023/02/10 08:52:16;;;;;;;42.37;28.73;;;;;;;-0.53;92.35;98754.22;5152969;27;20661;-61
2023/02/10 08:54:42;;;;;;;46.07;27.30;;;;;;;-0.61;92.96;98751.34;5119125;28;20294;-61
2023/02/10 08:57:08;;;;;;;41.80;25.43;;;;;;;-0.69;93.65;98748.50;5112533;28;20564;-60
2023/02/10 08:59:33;;;;;;;40.03;25.23;;;;;;;-0.91;95.45;98747.44;5133665;27;20254;-59
2023/02/10 09:01:59;;;;;;;41.47;25.77;;;;;;;-1.08;96.55;98750.34;5139788;27;20179;-60
2023/02/10 09:04:24;;;;;;;39.30;25.70;;;;;;;-0.97;96.98;98749.59;5153292;27;20281;-61
2023/02/10 09:06:50;;;;;;;41.30;27.30;;;;;;;-1.02;97.06;98751.69;5153041;27;20274;-59
2023/02/10 09:09:21;;;;;;;38.83;26.27;;;;;;;-0.66;95.79;98749.09;5137735;27;20174;-58
2023/02/10 09:11:47;;;;;;;41.27;26.77;;;;;;;-0.48;93.55;98742.66;5144948;27;20231;-54
2023/02/10 09:14:12;;;;;;;38.67;25.87;;;;;;;-0.59;93.69;98747.75;5132874;27;20179;-59
2023/02/10 09:16:38;;;;;;;37.77;25.33;;;;;;;-0.56;93.90;98746.72;5147353;27;20872;-60
2023/02/10 09:19:04;;;;;;;35.87;24.23;;;;;;;-0.47;93.70;98748.63;5150920;27;20183;-60
2023/02/10 09:21:30;;;;;;;40.90;26.67;;;;;;;-0.21;92.51;98741.59;5132611;27;20164;-60
2023/02/10 09:23:56;;;;;;;43.80;27.40;;;;;;;-0.08;92.51;98744.94;5141572;27;20179;-60
2023/02/10 09:26:21;;;;;;;51.00;27.27;;;;;;;0.14;91.59;98739.03;5151106;27;20258;-61
2023/02/10 09:28:48;;;;;;;42.67;26.33;;;;;;;0.23;91.80;98741.75;5155643;27;20194;-60
2023/02/10 09:31:15;;;;;;;40.53;26.93;;;;;;;0.25;91.47;98732.16;5148002;27;20167;-60
2023/02/10 09:33:42;;;;;;;38.10;26.50;;;;;;;0.29;91.99;98738.72;5129041;27;20252;-61
2023/02/10 09:36:12;;;;;;;38.97;24.93;;;;;;;0.36;90.85;98745.06;5144312;27;20616;-60
2023/02/10 09:38:38;;;;;;;38.33;25.77;;;;;;;0.53;89.88;98743.81;5152238;27;20183;-61
2023/02/10 09:41:21;;;;;;;38.53;24.80;;;;;;;0.45;88.42;98753.09;5147620;27;20182;-62
2023/02/10 09:44:13;;;;;;;35.63;25.33;;;;;;;0.41;86.72;98752.47;5157103;27;20191;-61
2023/02/10 09:46:58;;;;;;;36.13;24.23;;;;;;;0.49;85.90;98754.50;5132361;27;20703;-61
2023/02/10 09:49:26;;;;;;;37.13;29.60;;;;;;;0.63;84.35;98747.34;5144376;27;20179;-62
2023/02/10 09:52:19;;;;;;;37.37;29.73;;;;;;;0.66;84.43;98751.47;5141099;27;20176;-62
2023/02/10 09:54:45;;;;;;;41.63;29.93;;;;;;;0.83;83.68;98758.75;5136355;27;20207;-61
2023/02/10 09:57:15;;;;;;;37.20;24.67;;;;;;;0.89;83.28;98755.72;5134954;27;20175;-61
2023/02/10 09:59:42;;;;;;;36.80;25.10;;;;;;;1.09;82.45;98752.41;5138800;27;20175;-61
2023/02/10 10:02:31;;;;;;;41.07;29.13;;;;;;;1.19;81.38;98761.06;5149027;27;20584;-60
2023/02/10 10:04:59;;;;;;;41.77;29.00;;;;;;;1.09;81.07;98754.16;5140526;27;20211;-60
2023/02/10 10:07:36;;;;;;;37.60;28.27;;;;;;;1.32;80.87;98753.19;5142365;27;20235;-60
2023/02/10 10:10:07;;;;;;;44.10;31.20;;;;;;;1.37;79.96;98752.84;5156795;27;20174;-61
2023/02/10 10:12:33;;;;;;;38.43;28.90;;;;;;;1.57;82.04;98744.31;5140502;27;20203;-61
2023/02/10 10:14:58;;;;;;;37.27;24.90;;;;;;;1.71;82.68;98751.81;5140366;27;20714;-60
2023/02/10 10:17:58;;;;;;;41.20;27.20;;;;;;;1.75;82.23;98745.44;5136422;27;20179;-61
2023/02/10 10:21:01;;;;;;;40.97;26.07;;;;;;;1.74;82.67;98748.97;5156407;27;20530;-63
2023/02/10 10:23:36;;;;;;;42.27;28.97;;;;;;;1.65;85.36;98747.97;5139634;27;20182;-62
2023/02/10 10:26:10;;;;;;;43.13;26.80;;;;;;;1.52;86.58;98749.84;5139442;27;20210;-61
2023/02/10 10:29:00;;;;;;;45.40;26.17;;;;;;;1.53;87.74;98742.94;5156141;27;20266;-61
2023/02/10 10:31:33;;;;;;;43.53;27.03;;;;;;;1.58;88.33;98741.63;5153825;27;20261;-61
2023/02/10 10:34:18;;;;;;;42.20;27.90;;;;;;;1.73;86.85;98749.91;5142788;27;20202;-61
2023/02/10 10:36:46;;;;;;;40.77;26.73;;;;;;;1.84;86.47;98749.06;5149112;27;20183;-61
2023/02/10 10:39:23;;;;;;;43.77;26.37;;;;;;;2.08;85.53;98747.91;5145461;27;20185;-61
2023/02/10 10:41:49;;;;;;;40.57;27.00;;;;;;;2.23;84.93;98743.22;5145364;27;20186;-62
2023/02/10 10:44:18;;;;;;;44.30;28.23;;;;;;;2.08;83.61;98744.50;5139335;27;20191;-61
2023/02/10 10:46:49;;;;;;;41.33;26.53;;;;;;;2.29;84.07;98744.50;5133140;27;20694;-61
2023/02/10 10:49:15;;;;;;;42.63;27.17;;;;;;;2.08;84.85;98744.50;5139683;27;20183;-62
2023/02/10 10:51:41;;;;;;;43.57;27.97;;;;;;;2.24;84.64;98744.06;5136154;27;20271;-61
2023/02/10 10:54:15;;;;;;;38.27;25.80;;;;;;;2.22;81.33;98756.31;5136128;27;20603;-61
2023/02/10 10:56:43;;;;;;;37.67;26.10;;;;;;;2.31;80.97;98751.19;5134993;27;20175;-63
2023/02/10 10:59:20;;;;;;;39.90;27.53;;;;;;;2.27;82.69;98743.81;5134841;27;20183;-62
2023/02/10 11:01:47;;;;;;;43.17;37.93;;;;;;;2.44;80.54;98735.50;5146886;27;20261;-61
2023/02/10 11:04:14;;;;;;;40.93;30.50;;;;;;;2.58;80.48;98739.50;5125227;27;20639;-61
2023/02/10 11:06:42;;;;;;;36.07;28.70;;;;;;;2.49;79.54;98734.16;5134889;27;20203;-61
2023/02/10 11:09:21;;;;;;;50.40;40.10;;;;;;;2.63;80.76;98737.34;5134149;27;20178;-63
2023/02/10 11:11:48;;;;;;;51.83;30.07;;;;;;;2.66;80.34;98737.09;5150176;27;20250;-62
2023/02/10 11:14:26;;;;;;;42.50;31.23;;;;;;;2.74;80.58;98732.91;5143006;27;20178;-62
2023/02/10 11:16:57;;;;;;;38.63;29.03;;;;;;;2.64;80.24;98731.22;5153365;27;20596;-62
2023/02/10 11:19:26;;;;;;;40.60;33.27;;;;;;;2.64;81.26;98731.22;5154348;27;20257;-61
2023/02/10 11:21:52;;;;;;;37.20;32.40;;;;;;;2.80;81.03;98740.16;5155159;27;20181;-61
2023/02/10 11:24:41;;;;;;;38.60;24.93;;;;;;;2.68;78.45;98730.00;5134474;27;20259;-61